sensor_id;sensor_type;location;lat;lon;timestamp;pressure;altitude;pressure_sealevel;temperature;humidity
73151;BME280;61354;50.758;6.106;2023-11-21T00:16:03;98544.50;;;9.37;100.00
73151;BME280;61354;50.758;6.106;2023-11-21T00:18:29;98557.97;;;9.78;100.00
73151;BME280;61354;50.758;6.106;2023-11-21T00:20:55;98553.59;;;9.57;100.00
73151;BME280;61354;50.758;6.106;2023-11-21T00:23:36;98549.00;;;9.65;100.00
73151;BME280;61354;50.758;6.106;2023-11-21T00:37:28;98567.31;;;9.31;100.00
73151;BME280;61354;50.758;6.106;2023-11-21T00:39:54;98566.50;;;9.11;100.00
73151;BME280;61354;50.758;6.106;2023-11-21T00:42:19;98566.78;;;9.06;100.00
73151;BME280;61354;50.758;6.106;2023-11-21T00:44:46;98572.31;;;9.06;100.00
73151;BME280;61354;50.758;6.106;2023-11-21T00:47:12;98577.66;;;9.14;100.00
73151;BME280;61354;50.758;6.106;2023-11-21T00:49:37;98577.34;;;9.19;100.00
73151;BME280;61354;50.758;6.106;2023-11-21T00:52:05;98582.28;;;9.45;100.00
73151;BME280;61354;50.758;6.106;2023-11-21T00:54:30;98585.97;;;9.14;100.00
73151;BME280;61354;50.758;6.106;2023-11-21T00:56:56;98587.28;;;9.20;100.00
73151;BME280;61354;50.758;6.106;2023-11-21T00:59:22;98585.09;;;9.10;100.00
73151;BME280;61354;50.758;6.106;2023-11-21T01:01:48;98585.59;;;9.16;100.00
73151;BME280;61354;50.758;6.106;2023-11-21T01:04:14;98591.59;;;9.18;100.00
73151;BME280;61354;50.758;6.106;2023-11-21T01:06:40;98598.63;;;9.15;100.00
73151;BME280;61354;50.758;6.106;2023-11-21T01:09:05;98600.56;;;9.31;100.00
73151;BME280;61354;50.758;6.106;2023-11-21T01:11:37;98590.94;;;9.44;100.00
73151;BME280;61354;50.758;6.106;2023-11-21T01:14:04;98601.69;;;9.10;100.00
73151;BME280;61354;50.758;6.106;2023-11-21T01:16:30;98600.25;;;9.16;100.00
73151;BME280;61354;50.758;6.106;2023-11-21T01:18:58;98600.97;;;9.13;100.00
73151;BME280;61354;50.758;6.106;2023-11-21T01:21:25;98609.28;;;9.13;100.00
73151;BME280;61354;50.758;6.106;2023-11-21T01:23:50;98602.47;;;9.27;100.00
73151;BME280;61354;50.758;6.106;2023-11-21T01:26:16;98603.34;;;9.31;100.00
73151;BME280;61354;50.758;6.106;2023-11-21T01:28:41;98604.84;;;9.28;100.00
73151;BME280;61354;50.758;6.106;2023-11-21T01:31:07;98602.91;;;9.48;100.00
73151;BME280;61354;50.758;6.106;2023-11-21T01:33:32;98598.81;;;9.61;100.00
73151;BME280;61354;50.758;6.106;2023-11-21T01:35:58;98605.03;;;9.55;100.00
73151;BME280;61354;50.758;6.106;2023-11-21T01:38:25;98608.53;;;9.52;100.00
73151;BME280;61354;50.758;6.106;2023-11-21T01:40:51;98614.16;;;9.55;100.00
73151;BME280;61354;50.758;6.106;2023-11-21T01:43:17;98616.41;;;9.69;100.00
73151;BME280;61354;50.758;6.106;2023-11-21T01:45:42;98617.88;;;9.82;100.00
73151;BME280;61354;50.758;6.106;2023-11-21T01:48:11;98610.34;;;9.83;100.00
73151;BME280;61354;50.758;6.106;2023-11-21T01:50:38;98606.94;;;9.70;100.00
73151;BME280;61354;50.758;6.106;2023-11-21T01:53:04;98610.94;;;9.73;100.00
73151;BME280;61354;50.758;6.106;2023-11-21T01:55:32;98610.50;;;9.90;100.00
73151;BME280;61354;50.758;6.106;2023-11-21T01:57:59;98618.31;;;9.84;100.00
73151;BME280;61354;50.758;6.106;2023-11-21T02:00:25;98621.28;;;9.37;100.00
73151;BME280;61354;50.758;6.106;2023-11-21T02:02:53;98614.53;;;9.18;100.00
73151;BME280;61354;50.758;6.106;2023-11-21T02:05:19;98617.63;;;9.33;100.00
73151;BME280;61354;50.758;6.106;2023-11-21T02:07:47;98626.19;;;9.43;100.00
73151;BME280;61354;50.758;6.106;2023-11-21T02:10:18;98620.13;;;9.57;100.00
73151;BME280;61354;50.758;6.106;2023-11-21T02:12:48;98624.91;;;9.21;100.00
73151;BME280;61354;50.758;6.106;2023-11-21T02:15:16;98620.03;;;9.54;100.00
73151;BME280;61354;50.758;6.106;2023-11-21T02:17:49;98623.94;;;9.68;100.00
73151;BME280;61354;50.758;6.106;2023-11-21T02:20:17;98628.44;;;9.38;100.00
73151;BME280;61354;50.758;6.106;2023-11-21T02:22:51;98629.66;;;9.40;100.00
73151;BME280;61354;50.758;6.106;2023-11-21T02:25:31;98626.72;;;9.68;100.00
73151;BME280;61354;50.758;6.106;2023-11-21T02:27:58;98635.25;;;9.60;100.00
73151;BME280;61354;50.758;6.106;2023-11-21T02:30:24;98630.66;;;9.67;100.00
73151;BME280;61354;50.758;6.106;2023-11-21T02:32:59;98621.66;;;9.74;100.00
73151;BME280;61354;50.758;6.106;2023-11-21T02:35:26;98632.41;;;9.76;100.00
73151;BME280;61354;50.758;6.106;2023-11-21T02:37:52;98638.06;;;9.83;100.00
73151;BME280;61354;50.758;6.106;2023-11-21T02:40:18;98634.88;;;9.81;100.00
73151;BME280;61354;50.758;6.106;2023-11-21T02:42:49;98642.19;;;9.89;100.00
73151;BME280;61354;50.758;6.106;2023-11-21T02:45:19;98641.72;;;9.87;100.00
73151;BME280;61354;50.758;6.106;2023-11-21T02:47:46;98641.31;;;9.85;100.00
73151;BME280;61354;50.758;6.106;2023-11-21T02:50:12;98642.78;;;9.79;100.00
73151;BME280;61354;50.758;6.106;2023-11-21T02:52:38;98638.59;;;9.69;100.00
73151;BME280;61354;50.758;6.106;2023-11-21T02:55:06;98638.50;;;9.65;100.00
73151;BME280;61354;50.758;6.106;2023-11-21T02:57:33;98654.78;;;9.48;100.00
73151;BME280;61354;50.758;6.106;2023-11-21T02:59:59;98645.69;;;9.66;100.00
73151;BME280;61354;50.758;6.106;2023-11-21T03:02:25;98650.59;;;9.38;100.00
73151;BME280;61354;50.758;6.106;2023-11-21T03:04:50;98649.31;;;9.51;100.00
73151;BME280;61354;50.758;6.106;2023-11-21T03:07:16;98650.59;;;9.38;100.00
73151;BME280;61354;50.758;6.106;2023-11-21T03:09:47;98648.75;;;9.26;100.00
73151;BME280;61354;50.758;6.106;2023-11-21T03:12:13;98652.66;;;9.60;100.00
73151;BME280;61354;50.758;6.106;2023-11-21T03:14:39;98660.13;;;9.76;100.00
73151;BME280;61354;50.758;6.106;2023-11-21T03:17:05;98668.44;;;9.76;100.00
73151;BME280;61354;50.758;6.106;2023-11-21T03:19:31;98661.50;;;9.66;100.00
73151;BME280;61354;50.758;6.106;2023-11-21T03:21:57;98666.41;;;9.73;100.00
73151;BME280;61354;50.758;6.106;2023-11-21T03:24:23;98668.88;;;9.78;100.00
73151;BME280;61354;50.758;6.106;2023-11-21T03:26:48;98660.19;;;9.60;100.00
73151;BME280;61354;50.758;6.106;2023-11-21T03:29:14;98662.88;;;9.56;100.00
73151;BME280;61354;50.758;6.106;2023-11-21T03:31:40;98664.34;;;9.50;100.00
73151;BME280;61354;50.758;6.106;2023-11-21T03:34:06;98669.44;;;9.48;100.00
73151;BME280;61354;50.758;6.106;2023-11-21T03:36:32;98674.97;;;9.48;100.00
73151;BME280;61354;50.758;6.106;2023-11-21T03:38:57;98679.72;;;9.48;100.00
73151;BME280;61354;50.758;6.106;2023-11-21T03:41:23;98679.34;;;9.49;100.00
73151;BME280;61354;50.758;6.106;2023-11-21T03:43:48;98690.09;;;9.51;100.00
73151;BME280;61354;50.758;6.106;2023-11-21T03:46:14;98698.69;;;9.65;100.00
73151;BME280;61354;50.758;6.106;2023-11-21T03:48:39;98701.47;;;9.45;100.00
73151;BME280;61354;50.758;6.106;2023-11-21T03:51:05;98695.91;;;9.45;100.00
73151;BME280;61354;50.758;6.106;2023-11-21T03:53:31;98703.06;;;9.46;100.00
73151;BME280;61354;50.758;6.106;2023-11-21T03:55:57;98708.16;;;9.29;100.00
73151;BME280;61354;50.758;6.106;2023-11-21T03:58:23;98710.28;;;9.51;100.00
73151;BME280;61354;50.758;6.106;2023-11-21T04:00:48;98708.19;;;9.64;100.00
73151;BME280;61354;50.758;6.106;2023-11-21T04:03:16;98702.56;;;9.60;100.00
73151;BME280;61354;50.758;6.106;2023-11-21T04:05:42;98707.41;;;9.63;100.00
73151;BME280;61354;50.758;6.106;2023-11-21T04:08:08;98704.81;;;9.55;100.00
73151;BME280;61354;50.758;6.106;2023-11-21T04:10:33;98714.66;;;9.52;100.00
73151;BME280;61354;50.758;6.106;2023-11-21T04:12:59;98708.75;;;9.54;100.00
73151;BME280;61354;50.758;6.106;2023-11-21T04:15:25;98704.75;;;9.51;100.00
73151;BME280;61354;50.758;6.106;2023-11-21T04:17:51;98709.63;;;9.58;100.00
73151;BME280;61354;50.758;6.106;2023-11-21T04:20:17;98706.50;;;9.59;100.00
73151;BME280;61354;50.758;6.106;2023-11-21T04:22:43;98705.03;;;9.46;100.00
73151;BME280;61354;50.758;6.106;2023-11-21T04:25:10;98714.78;;;9.75;100.00
73151;BME280;61354;50.758;6.106;2023-11-21T04:27:38;98707.06;;;9.49;100.00
73151;BME280;61354;50.758;6.106;2023-11-21T04:30:04;98707.25;;;9.40;100.00
73151;BME280;61354;50.758;6.106;2023-11-21T04:32:30;98720.56;;;9.51;100.00
73151;BME280;61354;50.758;6.106;2023-11-21T04:34:56;98715.03;;;9.51;100.00
73151;BME280;61354;50.758;6.106;2023-11-21T04:37:22;98714.50;;;9.45;100.00
73151;BME280;61354;50.758;6.106;2023-11-21T04:39:48;98722.59;;;9.54;100.00
73151;BME280;61354;50.758;6.106;2023-11-21T04:42:13;98722.66;;;9.38;100.00
73151;BME280;61354;50.758;6.106;2023-11-21T04:44:39;98731.06;;;9.26;100.00
73151;BME280;61354;50.758;6.106;2023-11-21T04:47:06;98732.38;;;9.48;100.00
73151;BME280;61354;50.758;6.106;2023-11-21T04:49:33;98731.19;;;9.49;100.00
73151;BME280;61354;50.758;6.106;2023-11-21T04:51:59;98739.16;;;9.50;100.00
73151;BME280;61354;50.758;6.106;2023-11-21T04:54:25;98733.69;;;9.54;100.00
73151;BME280;61354;50.758;6.106;2023-11-21T04:56:50;98739.88;;;9.47;100.00
73151;BME280;61354;50.758;6.106;2023-11-21T04:59:19;98731.00;;;9.57;100.00
73151;BME280;61354;50.758;6.106;2023-11-21T05:01:44;98732.56;;;9.74;100.00
73151;BME280;61354;50.758;6.106;2023-11-21T05:04:10;98740.56;;;9.60;100.00
73151;BME280;61354;50.758;6.106;2023-11-21T05:06:36;98740.97;;;9.78;100.00
73151;BME280;61354;50.758;6.106;2023-11-21T05:09:02;98742.97;;;9.61;100.00
73151;BME280;61354;50.758;6.106;2023-11-21T05:11:28;98743.16;;;9.68;100.00
73151;BME280;61354;50.758;6.106;2023-11-21T05:13:57;98751.03;;;9.66;100.00
73151;BME280;61354;50.758;6.106;2023-11-21T05:16:25;98756.00;;;9.77;100.00
73151;BME280;61354;50.758;6.106;2023-11-21T05:18:52;98759.78;;;9.68;100.00
73151;BME280;61354;50.758;6.106;2023-11-21T05:21:18;98754.53;;;9.63;100.00
73151;BME280;61354;50.758;6.106;2023-11-21T05:23:46;98753.56;;;9.56;100.00
73151;BME280;61354;50.758;6.106;2023-11-21T05:26:11;98752.09;;;9.62;100.00
73151;BME280;61354;50.758;6.106;2023-11-21T05:28:37;98755.59;;;9.59;100.00
73151;BME280;61354;50.758;6.106;2023-11-21T05:31:02;98753.25;;;9.61;100.00
73151;BME280;61354;50.758;6.106;2023-11-21T05:33:28;98754.22;;;9.68;100.00
73151;BME280;61354;50.758;6.106;2023-11-21T05:35:54;98764.72;;;9.59;100.00
73151;BME280;61354;50.758;6.106;2023-11-21T05:38:19;98775.22;;;9.18;100.00
73151;BME280;61354;50.758;6.106;2023-11-21T05:40:47;98770.38;;;9.47;100.00
73151;BME280;61354;50.758;6.106;2023-11-21T05:43:13;98774.00;;;9.67;100.00
73151;BME280;61354;50.758;6.106;2023-11-21T05:45:38;98783.56;;;9.69;100.00
73151;BME280;61354;50.758;6.106;2023-11-21T05:48:04;98792.50;;;9.79;100.00
73151;BME280;61354;50.758;6.106;2023-11-21T05:50:31;98792.25;;;9.68;100.00
73151;BME280;61354;50.758;6.106;2023-11-21T05:52:57;98791.84;;;9.85;100.00
73151;BME280;61354;50.758;6.106;2023-11-21T05:55:25;98792.81;;;9.93;100.00
73151;BME280;61354;50.758;6.106;2023-11-21T05:57:51;98798.75;;;9.91;100.00
73151;BME280;61354;50.758;6.106;2023-11-21T06:00:16;98799.25;;;9.97;100.00
73151;BME280;61354;50.758;6.106;2023-11-21T06:02:47;98803.22;;;9.80;100.00
73151;BME280;61354;50.758;6.106;2023-11-21T06:05:12;98804.66;;;9.74;100.00
73151;BME280;61354;50.758;6.106;2023-11-21T06:07:38;98815.31;;;9.72;100.00
73151;BME280;61354;50.758;6.106;2023-11-21T06:10:08;98824.44;;;9.57;100.00
73151;BME280;61354;50.758;6.106;2023-11-21T06:12:38;98827.31;;;9.29;100.00
73151;BME280;61354;50.758;6.106;2023-11-21T06:15:06;98834.72;;;9.56;100.00
73151;BME280;61354;50.758;6.106;2023-11-21T06:17:37;98837.06;;;9.54;100.00
73151;BME280;61354;50.758;6.106;2023-11-21T06:20:06;98839.66;;;9.47;100.00
73151;BME280;61354;50.758;6.106;2023-11-21T06:22:38;98841.97;;;9.61;100.00
73151;BME280;61354;50.758;6.106;2023-11-21T06:25:05;98841.53;;;9.75;100.00
73151;BME280;61354;50.758;6.106;2023-11-21T06:27:32;98852.78;;;9.82;100.00
73151;BME280;61354;50.758;6.106;2023-11-21T06:29:58;98852.06;;;9.85;100.00
73151;BME280;61354;50.758;6.106;2023-11-21T06:32:24;98850.53;;;9.87;100.00
73151;BME280;61354;50.758;6.106;2023-11-21T06:34:49;98850.50;;;10.03;100.00
73151;BME280;61354;50.758;6.106;2023-11-21T06:37:15;98847.41;;;9.89;100.00
73151;BME280;61354;50.758;6.106;2023-11-21T06:39:42;98840.69;;;9.74;100.00
73151;BME280;61354;50.758;6.106;2023-11-21T06:42:08;98847.41;;;9.89;100.00
73151;BME280;61354;50.758;6.106;2023-11-21T06:44:33;98856.81;;;9.84;100.00
73151;BME280;61354;50.758;6.106;2023-11-21T06:47:00;98850.28;;;9.77;100.00
73151;BME280;61354;50.758;6.106;2023-11-21T06:49:26;98850.47;;;9.84;100.00
73151;BME280;61354;50.758;6.106;2023-11-21T06:51:52;98849.66;;;9.67;100.00
73151;BME280;61354;50.758;6.106;2023-11-21T06:54:18;98857.91;;;9.64;100.00
73151;BME280;61354;50.758;6.106;2023-11-21T06:56:44;98860.03;;;9.55;100.00
73151;BME280;61354;50.758;6.106;2023-11-21T06:59:09;98858.59;;;9.45;100.00
73151;BME280;61354;50.758;6.106;2023-11-21T07:01:36;98863.72;;;9.43;100.00
73151;BME280;61354;50.758;6.106;2023-11-21T07:04:05;98868.47;;;9.58;100.00
73151;BME280;61354;50.758;6.106;2023-11-21T07:06:31;98876.13;;;9.49;100.00
73151;BME280;61354;50.758;6.106;2023-11-21T07:08:57;98886.69;;;9.59;100.00
73151;BME280;61354;50.758;6.106;2023-11-21T07:11:24;98883.19;;;9.31;100.00
73151;BME280;61354;50.758;6.106;2023-11-21T07:13:50;98893.22;;;9.51;100.00
73151;BME280;61354;50.758;6.106;2023-11-21T07:16:16;98891.66;;;9.22;100.00
73151;BME280;61354;50.758;6.106;2023-11-21T07:18:42;98893.56;;;9.34;100.00
73151;BME280;61354;50.758;6.106;2023-11-21T07:21:08;98889.66;;;9.66;100.00
73151;BME280;61354;50.758;6.106;2023-11-21T07:23:34;98907.41;;;9.50;100.00
73151;BME280;61354;50.758;6.106;2023-11-21T07:25:59;98906.44;;;9.74;100.00
73151;BME280;61354;50.758;6.106;2023-11-21T07:28:25;98902.88;;;9.57;100.00
73151;BME280;61354;50.758;6.106;2023-11-21T07:30:51;98915.31;;;9.63;100.00
73151;BME280;61354;50.758;6.106;2023-11-21T07:33:17;98921.66;;;9.80;100.00
73151;BME280;61354;50.758;6.106;2023-11-21T07:35:43;98923.44;;;9.88;100.00
73151;BME280;61354;50.758;6.106;2023-11-21T07:38:08;98920.59;;;10.00;100.00
73151;BME280;61354;50.758;6.106;2023-11-21T07:40:34;98925.16;;;9.92;100.00
73151;BME280;61354;50.758;6.106;2023-11-21T07:43:00;98925.06;;;9.73;100.00
73151;BME280;61354;50.758;6.106;2023-11-21T07:45:25;98926.03;;;9.65;100.00
73151;BME280;61354;50.758;6.106;2023-11-21T07:47:55;98931.16;;;9.79;100.00
73151;BME280;61354;50.758;6.106;2023-11-21T07:50:22;98936.75;;;9.51;100.00
73151;BME280;61354;50.758;6.106;2023-11-21T07:52:48;98940.97;;;9.60;100.00
73151;BME280;61354;50.758;6.106;2023-11-21T07:55:16;98939.91;;;9.65;100.00
73151;BME280;61354;50.758;6.106;2023-11-21T07:57:41;98946.16;;;9.78;100.00
73151;BME280;61354;50.758;6.106;2023-11-21T08:00:07;98950.72;;;9.86;100.00
73151;BME280;61354;50.758;6.106;2023-11-21T08:02:34;98957.09;;;9.70;100.00
73151;BME280;61354;50.758;6.106;2023-11-21T08:05:00;98962.72;;;9.90;100.00
73151;BME280;61354;50.758;6.106;2023-11-21T08:07:26;98960.06;;;9.34;100.00
73151;BME280;61354;50.758;6.106;2023-11-21T08:09:51;98969.97;;;9.79;100.00
73151;BME280;61354;50.758;6.106;2023-11-21T08:12:18;98967.03;;;9.87;100.00
73151;BME280;61354;50.758;6.106;2023-11-21T08:14:45;98973.38;;;9.88;100.00
73151;BME280;61354;50.758;6.106;2023-11-21T08:17:11;98979.53;;;9.97;100.00
73151;BME280;61354;50.758;6.106;2023-11-21T08:19:36;98985.44;;;10.11;100.00
73151;BME280;61354;50.758;6.106;2023-11-21T08:22:03;98986.09;;;10.05;100.00
73151;BME280;61354;50.758;6.106;2023-11-21T08:24:29;98983.75;;;10.23;100.00
73151;BME280;61354;50.758;6.106;2023-11-21T08:26:54;98989.28;;;10.23;100.00
73151;BME280;61354;50.758;6.106;2023-11-21T08:29:20;98989.19;;;10.19;100.00
73151;BME280;61354;50.758;6.106;2023-11-21T08:31:46;98992.63;;;10.12;100.00
73151;BME280;61354;50.758;6.106;2023-11-21T08:34:14;98997.28;;;10.08;100.00
73151;BME280;61354;50.758;6.106;2023-11-21T08:36:43;99002.81;;;10.08;100.00
73151;BME280;61354;50.758;6.106;2023-11-21T08:39:09;99003.56;;;10.37;100.00
73151;BME280;61354;50.758;6.106;2023-11-21T08:41:35;99002.72;;;10.20;100.00
73151;BME280;61354;50.758;6.106;2023-11-21T08:44:02;99008.47;;;10.28;100.00
73151;BME280;61354;50.758;6.106;2023-11-21T08:46:31;99011.88;;;10.37;100.00
73151;BME280;61354;50.758;6.106;2023-11-21T08:48:56;99015.81;;;10.36;100.00
73151;BME280;61354;50.758;6.106;2023-11-21T08:51:22;99018.06;;;10.30;100.00
73151;BME280;61354;50.758;6.106;2023-11-21T08:53:47;99022.25;;;10.40;100.00
73151;BME280;61354;50.758;6.106;2023-11-21T08:56:13;99024.78;;;10.45;100.00
73151;BME280;61354;50.758;6.106;2023-11-21T08:58:43;99020.66;;;10.39;100.00
73151;BME280;61354;50.758;6.106;2023-11-21T09:01:09;99029.34;;;10.37;100.00
73151;BME280;61354;50.758;6.106;2023-11-21T09:03:35;99034.41;;;10.51;100.00
73151;BME280;61354;50.758;6.106;2023-11-21T09:06:01;99034.34;;;10.48;100.00
73151;BME280;61354;50.758;6.106;2023-11-21T09:08:26;99033.25;;;10.52;100.00
73151;BME280;61354;50.758;6.106;2023-11-21T09:10:54;99039.66;;;10.37;100.00
73151;BME280;61354;50.758;6.106;2023-11-21T09:13:20;99043.94;;;10.50;100.00
73151;BME280;61354;50.758;6.106;2023-11-21T09:15:45;99045.34;;;10.44;100.00
73151;BME280;61354;50.758;6.106;2023-11-21T09:18:14;99049.56;;;10.54;100.00
73151;BME280;61354;50.758;6.106;2023-11-21T09:20:42;99053.16;;;10.54;100.00
73151;BME280;61354;50.758;6.106;2023-11-21T09:23:09;99048.19;;;10.63;100.00
73151;BME280;61354;50.758;6.106;2023-11-21T09:25:35;99054.72;;;10.71;100.00
73151;BME280;61354;50.758;6.106;2023-11-21T09:28:03;99060.44;;;10.78;100.00
73151;BME280;61354;50.758;6.106;2023-11-21T09:30:34;99061.56;;;10.58;100.00
73151;BME280;61354;50.758;6.106;2023-11-21T09:32:59;99068.25;;;10.57;100.00
73151;BME280;61354;50.758;6.106;2023-11-21T09:35:26;99066.03;;;10.62;100.00
73151;BME280;61354;50.758;6.106;2023-11-21T09:37:53;99074.28;;;10.27;100.00
73151;BME280;61354;50.758;6.106;2023-11-21T09:40:21;99077.09;;;10.78;100.00
73151;BME280;61354;50.758;6.106;2023-11-21T09:42:56;99076.50;;;10.53;100.00
73151;BME280;61354;50.758;6.106;2023-11-21T09:47:53;99078.56;;;10.72;100.00
73151;BME280;61354;50.758;6.106;2023-11-21T09:50:21;99076.72;;;10.29;100.00
73151;BME280;61354;50.758;6.106;2023-11-21T09:55:27;99076.25;;;10.58;100.00
73151;BME280;61354;50.758;6.106;2023-11-21T09:57:57;99073.91;;;10.60;100.00
73151;BME280;61354;50.758;6.106;2023-11-21T10:00:23;99073.00;;;10.56;100.00
73151;BME280;61354;50.758;6.106;2023-11-21T10:02:49;99065.34;;;10.50;100.00
73151;BME280;61354;50.758;6.106;2023-11-21T10:05:16;99073.91;;;10.60;100.00
73151;BME280;61354;50.758;6.106;2023-11-21T10:07:46;99080.97;;;10.74;100.00
73151;BME280;61354;50.758;6.106;2023-11-21T10:10:13;99085.38;;;10.59;100.00
73151;BME280;61354;50.758;6.106;2023-11-21T10:12:42;99078.41;;;11.00;100.00
73151;BME280;61354;50.758;6.106;2023-11-21T10:15:11;99084.53;;;10.90;100.00
73151;BME280;61354;50.758;6.106;2023-11-21T10:17:42;99084.59;;;10.93;100.00
73151;BME280;61354;50.758;6.106;2023-11-21T10:20:11;99084.03;;;10.68;100.00
73151;BME280;61354;50.758;6.106;2023-11-21T10:22:40;99091.72;;;10.91;100.00
73151;BME280;61354;50.758;6.106;2023-11-21T10:25:09;99092.16;;;10.93;100.00
73151;BME280;61354;50.758;6.106;2023-11-21T10:27:36;99093.34;;;10.60;100.00
73151;BME280;61354;50.758;6.106;2023-11-21T10:30:08;99097.91;;;11.19;100.00
73151;BME280;61354;50.758;6.106;2023-11-21T10:32:38;99104.97;;;10.82;100.00
73151;BME280;61354;50.758;6.106;2023-11-21T10:35:09;99095.75;;;11.29;100.00
73151;BME280;61354;50.758;6.106;2023-11-21T10:37:39;99096.19;;;11.50;100.00
73151;BME280;61354;50.758;6.106;2023-11-21T10:40:10;99097.78;;;11.51;100.00
73151;BME280;61354;50.758;6.106;2023-11-21T10:42:39;99106.72;;;11.60;100.00
73151;BME280;61354;50.758;6.106;2023-11-21T10:45:06;99103.06;;;11.37;100.00
73151;BME280;61354;50.758;6.106;2023-11-21T10:47:39;99101.22;;;11.25;100.00
73151;BME280;61354;50.758;6.106;2023-11-21T10:50:05;99101.28;;;11.29;100.00
73151;BME280;61354;50.758;6.106;2023-11-21T10:52:31;99103.03;;;11.17;100.00
73151;BME280;61354;50.758;6.106;2023-11-21T10:55:00;99098.31;;;11.02;100.00
73151;BME280;61354;50.758;6.106;2023-11-21T10:57:29;99097.63;;;11.44;100.00
73151;BME280;61354;50.758;6.106;2023-11-21T10:59:56;99091.16;;;11.36;100.00
73151;BME280;61354;50.758;6.106;2023-11-21T11:02:24;99083.75;;;11.63;100.00
73151;BME280;61354;50.758;6.106;2023-11-21T11:04:58;99094.81;;;11.40;100.00
73151;BME280;61354;50.758;6.106;2023-11-21T11:07:27;99100.34;;;11.60;100.00
73151;BME280;61354;50.758;6.106;2023-11-21T11:09:54;99103.19;;;11.44;100.00
73151;BME280;61354;50.758;6.106;2023-11-21T11:12:20;99106.09;;;11.32;100.00
73151;BME280;61354;50.758;6.106;2023-11-21T11:14:48;99111.94;;;11.07;100.00
73151;BME280;61354;50.758;6.106;2023-11-21T11:17:13;99105.22;;;11.28;100.00
73151;BME280;61354;50.758;6.106;2023-11-21T11:19:39;99107.44;;;11.38;100.00
73151;BME280;61354;50.758;6.106;2023-11-21T11:27:48;99120.13;;;11.19;100.00
73151;BME280;61354;50.758;6.106;2023-11-21T11:38:23;99120.03;;;11.51;100.00
73151;BME280;61354;50.758;6.106;2023-11-21T11:40:52;99113.94;;;11.26;100.00
73151;BME280;61354;50.758;6.106;2023-11-21T11:43:25;99114.69;;;11.42;100.00
73151;BME280;61354;50.758;6.106;2023-11-21T11:45:52;99120.13;;;11.19;100.00
73151;BME280;61354;50.758;6.106;2023-11-21T11:48:21;99124.56;;;11.40;100.00
73151;BME280;61354;50.758;6.106;2023-11-21T11:51:05;99121.97;;;11.66;100.00
73151;BME280;61354;50.758;6.106;2023-11-21T11:53:47;99130.94;;;11.40;100.00
73151;BME280;61354;50.758;6.106;2023-11-21T11:56:22;99128.31;;;11.67;100.00
73151;BME280;61354;50.758;6.106;2023-11-21T11:58:49;99119.19;;;11.86;100.00
73151;BME280;61354;50.758;6.106;2023-11-21T12:01:20;99120.78;;;11.67;100.00
73151;BME280;61354;50.758;6.106;2023-11-21T12:06:36;99126.19;;;11.41;100.00
73151;BME280;61354;50.758;6.106;2023-11-21T12:09:02;99130.88;;;11.37;100.00
73151;BME280;61354;50.758;6.106;2023-11-21T12:11:33;99126.84;;;11.73;100.00
73151;BME280;61354;50.758;6.106;2023-11-21T12:14:02;99122.97;;;11.78;100.00
73151;BME280;61354;50.758;6.106;2023-11-21T12:16:32;99128.00;;;11.88;100.00
73151;BME280;61354;50.758;6.106;2023-11-21T12:18:58;99136.16;;;11.61;100.00
73151;BME280;61354;50.758;6.106;2023-11-21T12:21:24;99134.44;;;11.92;100.00
73151;BME280;61354;50.758;6.106;2023-11-21T12:23:50;99142.47;;;11.97;100.00
73151;BME280;61354;50.758;6.106;2023-11-21T12:26:16;99133.81;;;11.63;100.00
73151;BME280;61354;50.758;6.106;2023-11-21T12:28:41;99134.69;;;11.67;100.00
73151;BME280;61354;50.758;6.106;2023-11-21T12:31:07;99139.19;;;11.91;100.00
73151;BME280;61354;50.758;6.106;2023-11-21T12:33:33;99136.84;;;11.93;99.79
73151;BME280;61354;50.758;6.106;2023-11-21T12:35:58;99133.25;;;11.93;100.00
73151;BME280;61354;50.758;6.106;2023-11-21T12:38:24;99140.28;;;12.06;100.00
73151;BME280;61354;50.758;6.106;2023-11-21T12:40:50;99139.22;;;11.76;100.00
73151;BME280;61354;50.758;6.106;2023-11-21T12:43:17;99142.28;;;11.51;100.00
73151;BME280;61354;50.758;6.106;2023-11-21T12:45:43;99158.00;;;11.98;100.00
73151;BME280;61354;50.758;6.106;2023-11-21T12:48:09;99163.31;;;11.68;100.00
73151;BME280;61354;50.758;6.106;2023-11-21T12:50:38;99163.34;;;11.52;100.00
73151;BME280;61354;50.758;6.106;2023-11-21T12:53:06;99166.88;;;11.68;100.00
73151;BME280;61354;50.758;6.106;2023-11-21T12:55:34;99170.69;;;11.41;100.00
73151;BME280;61354;50.758;6.106;2023-11-21T12:58:05;99171.56;;;11.64;100.00
73151;BME280;61354;50.758;6.106;2023-11-21T13:03:07;99180.06;;;11.01;100.00
73151;BME280;61354;50.758;6.106;2023-11-21T13:05:35;99187.13;;;11.14;100.00
73151;BME280;61354;50.758;6.106;2023-11-21T13:08:04;99183.44;;;11.10;100.00
73151;BME280;61354;50.758;6.106;2023-11-21T13:10:34;99184.28;;;10.95;100.00
73151;BME280;61354;50.758;6.106;2023-11-21T13:13:04;99187.69;;;11.04;100.00
73151;BME280;61354;50.758;6.106;2023-11-21T13:15:40;99187.22;;;11.02;100.00
73151;BME280;61354;50.758;6.106;2023-11-21T13:18:08;99181.56;;;11.14;100.00
73151;BME280;61354;50.758;6.106;2023-11-21T13:20:36;99184.25;;;11.11;100.00
73151;BME280;61354;50.758;6.106;2023-11-21T13:23:07;99196.06;;;11.24;100.00
73151;BME280;61354;50.758;6.106;2023-11-21T13:25:33;99193.47;;;11.31;100.00
73151;BME280;61354;50.758;6.106;2023-11-21T13:28:00;99196.13;;;11.43;100.00
73151;BME280;61354;50.758;6.106;2023-11-21T13:30:28;99208.44;;;11.26;100.00
73151;BME280;61354;50.758;6.106;2023-11-21T13:33:01;99216.06;;;11.45;100.00
73151;BME280;61354;50.758;6.106;2023-11-21T13:35:28;99212.41;;;11.60;100.00
73151;BME280;61354;50.758;6.106;2023-11-21T13:38:10;99219.47;;;11.23;100.00
73151;BME280;61354;50.758;6.106;2023-11-21T13:40:39;99216.16;;;11.33;100.00
73151;BME280;61354;50.758;6.106;2023-11-21T13:43:17;99214.19;;;11.33;100.00
73151;BME280;61354;50.758;6.106;2023-11-21T13:45:46;99209.97;;;11.24;100.00